SBMN/MAO METAR and TAF weather

Enter ICAO airport designator
Station Type Date Time Source
SBMN METAR 2019/06/17 07:00 UTC NOAA

SBMN 170700Z 22002KT 9999 FEW010 SCT100 25/23 Q1012


Station Type Date Time Source
SBMN Decoded METAR 2019/06/17 07:00 UTC NOAA

Manaus Aeroporto , Brazil (SBMN) 03-09S 059-59W 84M
Jun 17, 2019 - 03:00 AM EDT / 2019.06.17 0700 UTC
Wind: from the SW (220 degrees) at 2 MPH (2 KT):0
Visibility: greater than 7 mile(s):0
Sky conditions: partly cloudy
Temperature: 77 F (25 C)
Dew Point: 73 F (23 C)
Relative Humidity: 88%
Pressure (altimeter): 29.88 in. Hg (1012 hPa)
ob: SBMN 170700Z 22002KT 9999 FEW010 SCT100 25/23 Q1012
cycle: 7

Station Type Date Time Source
SBMN TAF 2019/06/17 06:09 UTC NOAA

TAF TAF SBMN 170400Z 1706/1718 02003KT 9999 SCT010 TN24/1708Z TX30/1717Z
BECMG 1710/1711 08005KT SCT012
BECMG 1716/1717 SCT020 FEW025TCU
RMK PFM

Example: see airport list